createdAt,value
2023-01-19T00:00:51.585Z,99095.91
2023-01-19T00:03:18.549Z,99095.81
2023-01-19T00:05:45.488Z,99099.31
2023-01-19T00:08:15.365Z,99089.75
2023-01-19T00:10:43.767Z,99094.88
2023-01-19T00:13:10.591Z,99088.88
2023-01-19T00:15:37.240Z,99096.72
2023-01-19T00:18:03.926Z,99092.38
2023-01-19T00:20:32.810Z,99091.56
2023-01-19T00:22:59.677Z,99099.31
2023-01-19T00:25:26.436Z,99100.16
2023-01-19T00:27:52.971Z,99100.09
2023-01-19T00:30:19.489Z,99103.59
2023-01-19T00:32:46.107Z,99097.66
2023-01-19T00:35:12.649Z,99102.88
2023-01-19T00:37:39.213Z,99089.06
2023-01-19T00:40:06.579Z,99096.09
2023-01-19T00:42:44.376Z,99101.28
2023-01-19T00:45:22.745Z,99096.91
2023-01-19T00:47:54.779Z,99095.22
2023-01-19T00:50:21.413Z,99090.13
2023-01-19T00:52:47.985Z,99090.25
2023-01-19T00:55:16.147Z,99082.53
2023-01-19T00:57:43.251Z,99091.28
2023-01-19T01:00:14.211Z,99092.19
2023-01-19T01:02:42.395Z,99087.94
2023-01-19T01:05:09.890Z,99094.13
2023-01-19T01:07:45.124Z,99094.22
2023-01-19T01:10:18.476Z,99091.66
2023-01-19T01:13:05.065Z,99085.75
2023-01-19T01:15:32.616Z,99091.00
2023-01-19T01:17:59.167Z,99085.84
2023-01-19T01:20:28.649Z,99092.06
2023-01-19T01:22:55.895Z,99090.44
2023-01-19T01:25:24.642Z,99093.97
2023-01-19T01:27:51.628Z,99091.59
2023-01-19T01:30:19.489Z,99096.06
2023-01-19T01:32:46.170Z,99093.50
2023-01-19T01:35:13.389Z,99097.03
2023-01-19T01:37:40.766Z,99094.44
2023-01-19T01:40:09.080Z,99097.97
2023-01-19T01:42:35.970Z,99098.03
2023-01-19T01:45:07.657Z,99108.41
2023-01-19T01:47:42.780Z,99099.72
2023-01-19T01:50:22.338Z,99104.97
2023-01-19T01:53:06.963Z,99102.41
2023-01-19T01:55:42.099Z,99105.84
2023-01-19T01:58:10.917Z,99105.00
2023-01-19T02:00:57.606Z,99107.59
2023-01-19T02:03:26.146Z,99103.41
2023-01-19T02:05:57.662Z,99099.06
2023-01-19T02:09:05.127Z,99100.75
2023-01-19T02:11:51.410Z,99100.75
2023-01-19T02:14:19.049Z,99101.69
2023-01-19T02:16:46.252Z,99103.47
2023-01-19T02:19:18.255Z,99107.75
2023-01-19T02:21:50.092Z,99104.19
2023-01-19T02:24:17.413Z,99109.41
2023-01-19T02:26:47.082Z,99112.06
2023-01-19T02:29:18.026Z,99100.09
2023-01-19T02:31:45.489Z,99106.16
2023-01-19T02:34:15.407Z,99099.19
2023-01-19T02:36:49.623Z,99110.47
2023-01-19T02:39:19.831Z,99109.66
2023-01-19T02:41:53.415Z,99107.06
2023-01-19T02:44:21.197Z,99101.06
2023-01-19T02:46:47.733Z,99105.44
2023-01-19T02:49:14.797Z,99104.56
2023-01-19T02:51:44.020Z,99103.78
2023-01-19T02:54:28.602Z,99097.81
2023-01-19T02:57:18.530Z,99097.94
2023-01-19T02:59:53.963Z,99100.56
2023-01-19T03:02:29.930Z,99098.81
2023-01-19T03:05:14.828Z,99097.97
2023-01-19T03:08:04.819Z,99091.13
2023-01-19T03:10:51.498Z,99081.59
2023-01-19T03:13:39.981Z,99086.75
2023-01-19T03:16:49.743Z,99080.72
2023-01-19T03:19:28.543Z,99078.06
2023-01-19T03:21:59.263Z,99079.78
2023-01-19T03:24:30.751Z,99088.34
2023-01-19T03:27:06.036Z,99084.94
2023-01-19T03:29:37.620Z,99082.38
2023-01-19T03:32:09.394Z,99074.56
2023-01-19T03:34:39.136Z,99071.03
2023-01-19T03:37:08.206Z,99070.22
2023-01-19T03:39:34.767Z,99081.47
2023-01-19T03:42:06.055Z,99083.22
2023-01-19T03:44:37.081Z,99087.59
2023-01-19T03:47:07.082Z,99086.75
2023-01-19T03:49:35.161Z,99101.41
2023-01-19T03:52:02.102Z,99091.88
2023-01-19T03:54:28.608Z,99087.59
2023-01-19T03:56:55.173Z,99093.72
2023-01-19T03:59:21.923Z,99085.91
2023-01-19T04:01:49.342Z,99082.53
2023-01-19T04:04:16.393Z,99087.66
2023-01-19T04:06:43.976Z,99094.56
2023-01-19T04:09:10.695Z,99095.47
2023-01-19T04:11:37.233Z,99096.34
2023-01-19T04:14:04.338Z,99100.69
2023-01-19T04:16:30.882Z,99092.88
2023-01-19T04:18:57.465Z,99097.13
2023-01-19T04:21:24.003Z,99098.81
2023-01-19T04:23:50.755Z,99091.19
2023-01-19T04:26:17.281Z,99096.47
2023-01-19T04:28:43.868Z,99082.66
2023-01-19T04:31:10.810Z,99091.41
2023-01-19T04:33:37.456Z,99097.50
2023-01-19T04:36:04.338Z,99096.69
2023-01-19T04:38:30.976Z,99098.41
2023-01-19T04:40:57.567Z,99093.22
2023-01-19T04:43:24.432Z,99086.31
2023-01-19T04:45:51.171Z,99095.84
2023-01-19T04:48:18.613Z,99088.06
2023-01-19T04:50:46.033Z,99092.28
2023-01-19T04:53:13.737Z,99093.16
2023-01-19T04:55:41.019Z,99088.75
2023-01-19T04:58:07.812Z,99090.44
2023-01-19T05:00:34.741Z,99092.09
2023-01-19T05:03:02.022Z,99092.13
2023-01-19T05:05:29.231Z,99087.75
2023-01-19T05:07:56.007Z,99098.16
2023-01-19T05:10:23.765Z,99097.22
2023-01-19T05:12:51.284Z,99093.75
2023-01-19T05:15:17.842Z,99103.34
2023-01-19T05:17:44.468Z,99101.81
2023-01-19T05:20:15.678Z,99097.69
2023-01-19T05:22:42.914Z,99091.72
2023-01-19T05:25:09.814Z,99092.56
2023-01-19T05:27:37.123Z,99095.13
2023-01-19T05:30:05.488Z,99093.38
2023-01-19T05:32:32.130Z,99099.50
2023-01-19T05:34:58.750Z,99102.19
2023-01-19T05:37:25.258Z,99097.00
2023-01-19T05:39:52.127Z,99097.09
2023-01-19T05:42:18.765Z,99103.25
2023-01-19T05:44:45.296Z,99102.44
2023-01-19T05:47:11.819Z,99104.09
2023-01-19T05:49:38.390Z,99102.41
2023-01-19T05:52:04.900Z,99096.31
2023-01-19T05:54:31.403Z,99101.50
2023-01-19T05:56:58.265Z,99105.81
2023-01-19T05:59:24.899Z,99104.91
2023-01-19T06:01:52.162Z,99101.47
2023-01-19T06:04:19.856Z,99101.47
2023-01-19T06:06:50.345Z,99108.38
2023-01-19T06:09:17.891Z,99098.75
2023-01-19T06:11:45.407Z,99099.63
2023-01-19T06:14:12.170Z,99110.91
2023-01-19T06:16:38.857Z,99113.47
2023-01-19T06:19:05.793Z,99104.78
2023-01-19T06:21:32.724Z,99096.19
2023-01-19T06:23:59.235Z,99114.44
2023-01-19T06:26:26.277Z,99110.19
2023-01-19T06:28:52.902Z,99116.41
2023-01-19T06:31:19.545Z,99124.53
2023-01-19T06:33:46.158Z,99126.69
2023-01-19T06:36:12.793Z,99115.78
2023-01-19T06:38:39.337Z,99123.84
2023-01-19T06:41:05.875Z,99130.19
2023-01-19T06:43:32.501Z,99135.66
2023-01-19T06:46:00.585Z,99141.13
2023-01-19T06:48:27.321Z,99144.81
2023-01-19T06:50:53.886Z,99144.16
2023-01-19T06:53:22.244Z,99133.13
2023-01-19T06:55:48.817Z,99143.69
2023-01-19T06:58:15.632Z,99142.94
2023-01-19T07:00:43.007Z,99137.78
2023-01-19T07:03:21.547Z,99144.69
2023-01-19T07:05:51.825Z,99150.69
2023-01-19T07:08:18.426Z,99147.16
2023-01-19T07:11:25.948Z,99148.84
2023-01-19T07:13:32.828Z,99147.91
2023-01-19T07:16:03.385Z,99159.31
2023-01-19T07:18:30.190Z,99154.13
2023-01-19T07:20:57.845Z,99147.28
2023-01-19T07:23:24.384Z,99159.56
2023-01-19T07:25:50.900Z,99156.22
2023-01-19T07:28:17.516Z,99169.25
2023-01-19T07:30:46.222Z,99169.25
2023-01-19T07:33:12.875Z,99171.91
2023-01-19T07:35:39.379Z,99174.53
2023-01-19T07:38:05.908Z,99182.44
2023-01-19T07:40:33.751Z,99174.69
2023-01-19T07:43:00.652Z,99178.31
2023-01-19T07:45:27.996Z,99181.09
2023-01-19T07:47:54.626Z,99178.59
2023-01-19T07:50:24.499Z,99183.19
2023-01-19T07:52:53.490Z,99186.88
2023-01-19T07:55:21.799Z,99199.22
2023-01-19T07:57:51.030Z,99190.72
2023-01-19T08:00:21.819Z,99194.38
2023-01-19T08:02:51.272Z,99192.75
2023-01-19T08:05:19.117Z,99193.66
2023-01-19T08:07:46.788Z,99188.50
2023-01-19T08:10:14.864Z,99193.81
2023-01-19T08:12:42.507Z,99193.94
2023-01-19T08:15:10.209Z,99201.88
2023-01-19T08:17:37.259Z,99184.66
2023-01-19T08:20:04.547Z,99195.22
2023-01-19T08:22:31.391Z,99194.53
2023-01-19T08:24:58.016Z,99192.09
2023-01-19T08:27:24.810Z,99191.38
2023-01-19T08:29:51.430Z,99185.41
2023-01-19T08:32:18.001Z,99196.84
2023-01-19T08:34:44.559Z,99190.84
2023-01-19T08:37:11.464Z,99198.81
2023-01-19T08:39:38.088Z,99195.44
2023-01-19T08:42:05.591Z,99198.13
2023-01-19T08:44:32.159Z,99197.19
2023-01-19T08:46:59.991Z,99201.28
2023-01-19T08:49:26.644Z,99195.81
2023-01-19T08:51:53.335Z,99197.31
2023-01-19T08:54:21.709Z,99213.59
2023-01-19T08:56:48.331Z,99198.59
2023-01-19T08:59:14.963Z,99211.50
2023-01-19T09:01:41.684Z,99205.34
2023-01-19T09:04:08.535Z,99211.47
2023-01-19T09:06:35.215Z,99217.75
2023-01-19T09:09:01.891Z,99221.00
2023-01-19T09:11:28.412Z,99221.38
2023-01-19T09:13:55.031Z,99212.13
2023-01-19T09:16:21.644Z,99214.13
2023-01-19T09:18:48.245Z,99208.31
2023-01-19T09:21:15.198Z,99202.41
2023-01-19T09:23:41.837Z,99209.47
2023-01-19T09:26:08.442Z,99200.91
2023-01-19T09:28:35.070Z,99211.63
2023-01-19T09:31:07.009Z,99208.34
2023-01-19T09:33:34.462Z,99217.13
2023-01-19T09:36:02.180Z,99210.28
2023-01-19T09:38:32.564Z,99210.31
2023-01-19T09:41:00.366Z,99217.38
2023-01-19T09:43:47.504Z,99211.41
2023-01-19T09:46:27.344Z,99225.44
2023-01-19T09:48:57.729Z,99222.00
2023-01-19T09:51:26.995Z,99219.44
2023-01-19T09:54:12.275Z,99228.22
2023-01-19T09:56:38.935Z,99217.75
2023-01-19T09:59:31.862Z,99229.19
2023-01-19T10:02:25.971Z,99220.56
2023-01-19T10:05:24.619Z,99224.13
2023-01-19T10:07:58.232Z,99224.13
2023-01-19T10:10:27.553Z,99233.66
2023-01-19T10:13:25.902Z,99218.72
2023-01-19T10:16:03.869Z,99220.25
2023-01-19T10:18:47.987Z,99225.25
2023-01-19T10:21:18.071Z,99220.78
2023-01-19T10:23:55.623Z,99219.75
2023-01-19T10:26:52.644Z,99226.72
2023-01-19T10:29:28.282Z,99238.28
2023-01-19T10:32:09.122Z,99237.59
2023-01-19T10:34:36.708Z,99238.53
2023-01-19T10:37:19.812Z,99231.53
2023-01-19T10:39:52.007Z,99240.31
2023-01-19T10:42:18.687Z,99236.00
2023-01-19T10:44:45.889Z,99232.56
2023-01-19T10:47:17.569Z,99224.84
2023-01-19T10:49:44.581Z,99225.84
2023-01-19T10:52:34.066Z,99222.38
2023-01-19T10:55:03.039Z,99226.78
2023-01-19T10:57:37.133Z,99226.91
2023-01-19T11:00:29.510Z,99223.34
2023-01-19T11:02:56.140Z,99237.31
2023-01-19T11:05:31.494Z,99236.47
2023-01-19T11:07:58.475Z,99231.31
2023-01-19T11:10:29.846Z,99237.44
2023-01-19T11:13:15.792Z,99223.41
2023-01-19T11:15:53.959Z,99233.84
2023-01-19T11:18:31.639Z,99233.03
2023-01-19T11:21:02.263Z,99230.44
2023-01-19T11:23:37.553Z,99243.47
2023-01-19T11:26:05.834Z,99240.72
2023-01-19T11:28:39.561Z,99243.44
2023-01-19T11:31:15.029Z,99243.38
2023-01-19T11:33:51.556Z,99243.44
2023-01-19T11:36:23.462Z,99251.31
2023-01-19T11:38:52.910Z,99245.25
2023-01-19T11:41:36.580Z,99239.25
2023-01-19T11:44:09.310Z,99241.84
2023-01-19T11:46:40.735Z,99240.16
2023-01-19T11:49:19.825Z,99238.56
2023-01-19T11:52:04.714Z,99237.84
2023-01-19T11:54:47.424Z,99241.44
2023-01-19T11:57:17.175Z,99238.78
2023-01-19T11:59:44.619Z,99239.59
2023-01-19T12:02:20.374Z,99249.09
2023-01-19T12:04:49.123Z,99237.69
2023-01-19T12:07:29.469Z,99244.44
2023-01-19T12:10:15.245Z,99239.94
2023-01-19T12:12:44.912Z,99239.06
2023-01-19T12:15:23.471Z,99233.84
2023-01-19T12:17:52.160Z,99245.16
2023-01-19T12:20:30.964Z,99245.94
2023-01-19T12:23:31.797Z,99233.66
2023-01-19T12:26:16.235Z,99251.00
2023-01-19T12:28:47.295Z,99242.28
2023-01-19T12:31:17.394Z,99250.41
2023-01-19T12:33:44.238Z,99256.53
2023-01-19T12:36:37.689Z,99255.88
2023-01-19T12:39:20.790Z,99255.19
2023-01-19T12:41:48.186Z,99258.81
2023-01-19T12:44:20.964Z,99263.22
2023-01-19T12:46:53.205Z,99265.88
2023-01-19T12:49:27.305Z,99261.63
2023-01-19T12:52:11.844Z,99273.88
2023-01-19T12:54:42.734Z,99272.84
2023-01-19T12:57:23.154Z,99274.56
2023-01-19T12:59:58.199Z,99272.81
2023-01-19T13:02:24.723Z,99274.50
2023-01-19T13:05:11.577Z,99279.69
2023-01-19T13:08:03.284Z,99278.81
2023-01-19T13:11:02.109Z,99288.38
2023-01-19T13:13:30.738Z,99282.28
2023-01-19T13:16:29.959Z,99286.66
2023-01-19T13:19:05.286Z,99284.97
2023-01-19T13:21:40.333Z,99287.69
2023-01-19T13:24:09.017Z,99292.06
2023-01-19T13:26:42.327Z,99290.25
2023-01-19T13:29:16.613Z,99295.44
2023-01-19T13:31:49.018Z,99294.50
2023-01-19T13:34:21.441Z,99308.50
2023-01-19T13:36:52.010Z,99298.81
2023-01-19T13:39:28.740Z,99300.44
2023-01-19T13:41:59.837Z,99309.00
2023-01-19T13:44:30.708Z,99301.94
2023-01-19T13:46:59.765Z,99308.84
2023-01-19T13:49:46.439Z,99316.25
2023-01-19T13:52:16.951Z,99322.75
2023-01-19T13:54:55.384Z,99324.25
2023-01-19T13:57:24.773Z,99319.03
2023-01-19T14:00:11.924Z,99333.91
2023-01-19T14:02:57.172Z,99338.22
2023-01-19T14:05:37.698Z,99336.25
2023-01-19T14:08:13.285Z,99349.22
2023-01-19T14:10:43.315Z,99352.72
2023-01-19T14:13:16.219Z,99354.38
2023-01-19T14:15:45.109Z,99352.53
2023-01-19T14:18:17.883Z,99354.22
2023-01-19T14:20:54.037Z,99365.47
2023-01-19T14:23:53.060Z,99367.09
2023-01-19T14:26:37.891Z,99374.88
2023-01-19T14:29:10.475Z,99383.47
2023-01-19T14:31:49.648Z,99376.44
2023-01-19T14:34:54.884Z,99379.88
2023-01-19T14:37:27.935Z,99388.44
2023-01-19T14:40:12.966Z,99397.09
2023-01-19T14:42:47.659Z,99389.25
2023-01-19T14:45:18.302Z,99391.81
2023-01-19T14:47:52.389Z,99395.34
2023-01-19T14:50:24.277Z,99391.00
2023-01-19T14:53:28.582Z,99398.13
2023-01-19T14:56:00.657Z,99399.94
2023-01-19T14:58:30.060Z,99403.38
2023-01-19T15:00:56.827Z,99408.66
2023-01-19T15:03:34.886Z,99411.25
2023-01-19T15:06:28.033Z,99411.38
2023-01-19T15:08:55.491Z,99420.13
2023-01-19T15:11:26.972Z,99422.75
2023-01-19T15:13:55.156Z,99423.66
2023-01-19T15:16:23.362Z,99423.66
2023-01-19T15:18:49.943Z,99434.09
2023-01-19T15:21:23.563Z,99435.81
2023-01-19T15:23:50.501Z,99434.13
2023-01-19T15:26:19.703Z,99442.81
2023-01-19T15:28:48.796Z,99436.72
2023-01-19T15:31:17.701Z,99439.25
2023-01-19T15:33:44.937Z,99444.44
2023-01-19T15:36:14.017Z,99444.44
2023-01-19T15:38:41.523Z,99447.91
2023-01-19T15:41:14.810Z,99459.22
2023-01-19T15:43:41.536Z,99459.22
2023-01-19T15:46:11.558Z,99460.97
2023-01-19T15:48:38.088Z,99469.59
2023-01-19T15:51:05.566Z,99463.47
2023-01-19T15:53:32.264Z,99468.69
2023-01-19T15:55:58.813Z,99477.38
2023-01-19T15:58:25.443Z,99475.66
2023-01-19T16:00:57.281Z,99481.69
2023-01-19T16:03:25.520Z,99487.78
2023-01-19T16:05:52.110Z,99491.19
2023-01-19T16:08:18.807Z,99494.66
2023-01-19T16:10:45.377Z,99494.66
2023-01-19T16:13:12.283Z,99499.75
2023-01-19T16:15:42.451Z,99503.16
2023-01-19T16:18:09.423Z,99507.41
2023-01-19T16:20:37.230Z,99501.22
2023-01-19T16:23:14.432Z,99505.50
2023-01-19T16:25:42.000Z,99515.00
2023-01-19T16:28:09.041Z,99512.38
2023-01-19T16:30:35.687Z,99514.88
2023-01-19T16:33:02.326Z,99517.41
2023-01-19T16:35:28.848Z,99523.34
2023-01-19T16:37:55.334Z,99528.47
2023-01-19T16:40:21.900Z,99525.69
2023-01-19T16:42:48.602Z,99529.88
2023-01-19T16:45:15.276Z,99536.69
2023-01-19T16:47:41.999Z,99535.63
2023-01-19T16:50:11.787Z,99538.16
2023-01-19T16:52:38.720Z,99540.69
2023-01-19T16:55:09.311Z,99537.06
2023-01-19T16:57:38.857Z,99546.56
2023-01-19T17:00:09.285Z,99545.50
2023-01-19T17:02:36.360Z,99550.63
2023-01-19T17:05:03.068Z,99548.75
2023-01-19T17:07:29.855Z,99546.91
2023-01-19T17:09:56.443Z,99550.25
2023-01-19T17:12:23.149Z,99551.88
2023-01-19T17:14:49.754Z,99561.25
2023-01-19T17:17:16.301Z,99561.97
2023-01-19T17:19:45.036Z,99556.59
2023-01-19T17:22:12.890Z,99562.56
2023-01-19T17:24:42.318Z,99565.94
2023-01-19T17:27:09.348Z,99561.50
2023-01-19T17:29:35.980Z,99569.28
2023-01-19T17:32:02.773Z,99577.84
2023-01-19T17:34:29.411Z,99583.91
2023-01-19T17:37:02.730Z,99571.63
2023-01-19T17:39:29.497Z,99585.50
2023-01-19T17:41:56.062Z,99586.25
2023-01-19T17:44:22.884Z,99583.56
2023-01-19T17:46:49.452Z,99582.50
2023-01-19T17:49:16.212Z,99587.63
2023-01-19T17:51:42.845Z,99591.81
2023-01-19T17:54:10.801Z,99595.19
2023-01-19T17:56:38.633Z,99596.81
2023-01-19T17:59:07.723Z,99594.06
2023-01-19T18:01:37.758Z,99603.50
2023-01-19T18:04:04.651Z,99608.53
2023-01-19T18:06:31.383Z,99611.88
2023-01-19T18:08:59.306Z,99614.41
2023-01-19T18:11:26.940Z,99613.41
2023-01-19T18:13:53.723Z,99621.09
2023-01-19T18:16:26.061Z,99616.75
2023-01-19T18:18:54.686Z,99617.50
2023-01-19T18:21:22.956Z,99628.81
2023-01-19T18:23:50.449Z,99620.06
2023-01-19T18:26:20.615Z,99624.41
2023-01-19T18:28:48.525Z,99625.28
2023-01-19T18:31:17.465Z,99631.38
2023-01-19T18:33:44.564Z,99632.19
2023-01-19T18:36:11.616Z,99630.44
2023-01-19T18:38:39.025Z,99636.50
2023-01-19T18:41:08.348Z,99635.56
2023-01-19T18:43:34.931Z,99626.81
2023-01-19T18:46:02.002Z,99640.66
2023-01-19T18:48:29.243Z,99644.16
2023-01-19T18:50:56.480Z,99648.34
2023-01-19T18:53:24.219Z,99643.91
2023-01-19T18:55:56.082Z,99644.69
2023-01-19T18:58:23.340Z,99642.91
2023-01-19T19:00:50.522Z,99640.22
2023-01-19T19:03:17.745Z,99648.78
2023-01-19T19:05:44.337Z,99649.44
2023-01-19T19:08:11.065Z,99652.03
2023-01-19T19:10:37.660Z,99658.06
2023-01-19T19:13:04.242Z,99651.97
2023-01-19T19:15:32.940Z,99659.84
2023-01-19T19:18:00.207Z,99654.63
2023-01-19T19:20:27.139Z,99656.28
2023-01-19T19:22:55.115Z,99662.38
2023-01-19T19:25:21.761Z,99658.88
2023-01-19T19:27:52.595Z,99659.72
2023-01-19T19:30:19.928Z,99667.47
2023-01-19T19:32:52.756Z,99671.78
2023-01-19T19:35:21.116Z,99661.28
2023-01-19T19:37:48.813Z,99676.75
2023-01-19T19:40:16.047Z,99680.94
2023-01-19T19:42:42.735Z,99678.28
2023-01-19T19:45:09.859Z,99686.78
2023-01-19T19:47:36.387Z,99695.31
2023-01-19T19:50:03.013Z,99704.63
2023-01-19T19:52:29.592Z,99703.63
2023-01-19T19:54:56.160Z,99709.59
2023-01-19T19:57:22.872Z,99709.41
2023-01-19T19:59:49.386Z,99723.19
2023-01-19T20:02:15.983Z,99724.78
2023-01-19T20:04:43.044Z,99724.63
2023-01-19T20:07:09.595Z,99726.28
2023-01-19T20:09:36.820Z,99729.72
2023-01-19T20:12:03.726Z,99730.56
2023-01-19T20:14:30.277Z,99724.41
2023-01-19T20:16:56.884Z,99729.66
2023-01-19T20:19:23.457Z,99729.78
2023-01-19T20:21:50.053Z,99726.38
2023-01-19T20:24:19.469Z,99728.06
2023-01-19T20:26:51.783Z,99723.75
2023-01-19T20:29:20.092Z,99735.81
2023-01-19T20:31:55.284Z,99747.00
2023-01-19T20:34:24.989Z,99740.06
2023-01-19T20:36:53.791Z,99746.91
2023-01-19T20:39:22.478Z,99748.59
2023-01-19T20:41:51.346Z,99749.50
2023-01-19T20:44:23.678Z,99753.75
2023-01-19T20:46:51.253Z,99750.34
2023-01-19T20:49:17.823Z,99753.78
2023-01-19T20:51:46.703Z,99759.06
2023-01-19T20:54:15.803Z,99759.00
2023-01-19T20:56:42.477Z,99760.63
2023-01-19T20:59:10.161Z,99764.97
2023-01-19T21:01:37.547Z,99767.56
2023-01-19T21:04:04.281Z,99764.97
2023-01-19T21:06:31.264Z,99770.97
2023-01-19T21:08:58.290Z,99773.56
2023-01-19T21:11:25.644Z,99777.06
2023-01-19T21:13:55.796Z,99770.91
2023-01-19T21:19:09.291Z,99782.91
2023-01-19T21:21:35.993Z,99789.69
2023-01-19T21:24:03.909Z,99803.47
2023-01-19T21:26:31.418Z,99809.38
2023-01-19T21:28:59.255Z,99805.78
2023-01-19T21:31:27.736Z,99820.34
2023-01-19T21:33:55.629Z,99814.13
2023-01-19T21:36:23.354Z,99819.16
2023-01-19T21:38:52.915Z,99825.19
2023-01-19T21:41:19.808Z,99819.94
2023-01-19T21:43:46.952Z,99829.31
2023-01-19T21:46:18.441Z,99824.13
2023-01-19T21:48:45.896Z,99828.59
2023-01-19T21:51:13.579Z,99833.13
2023-01-19T21:53:40.563Z,99837.50
2023-01-19T21:56:09.444Z,99836.78
2023-01-19T21:58:36.188Z,99830.78
2023-01-19T22:01:12.604Z,99837.63
2023-01-19T22:03:40.148Z,99842.00
2023-01-19T22:06:09.636Z,99838.59
2023-01-19T22:08:36.886Z,99836.00
2023-01-19T22:11:05.550Z,99842.16
2023-01-19T22:13:33.395Z,99840.34
2023-01-19T22:16:01.887Z,99848.09
2023-01-19T22:18:29.177Z,99855.81
2023-01-19T22:20:55.750Z,99855.69
2023-01-19T22:23:22.397Z,99859.09
2023-01-19T22:25:48.932Z,99862.44
2023-01-19T22:28:15.411Z,99871.00
2023-01-19T22:31:47.435Z,99876.06
2023-01-19T22:34:15.971Z,99871.59
2023-01-19T22:36:43.153Z,99884.53
2023-01-19T22:39:11.626Z,99880.97
2023-01-19T22:41:41.036Z,99867.84
2023-01-19T22:44:11.361Z,99884.19
2023-01-19T22:46:38.313Z,99883.22
2023-01-19T22:49:07.440Z,99888.34
2023-01-19T22:51:35.147Z,99886.53
2023-01-19T22:54:02.050Z,99887.38
2023-01-19T22:56:31.397Z,99892.56
2023-01-19T22:58:58.985Z,99896.00
2023-01-19T23:01:28.753Z,99892.56
2023-01-19T23:03:55.994Z,99897.72
2023-01-19T23:06:24.744Z,99902.00
2023-01-19T23:08:52.200Z,99896.88
2023-01-19T23:11:21.846Z,99901.19
2023-01-19T23:13:49.482Z,99893.31
2023-01-19T23:16:16.775Z,99899.41
2023-01-19T23:18:43.945Z,99911.59
2023-01-19T23:21:16.075Z,99910.63
2023-01-19T23:23:43.616Z,99916.78
2023-01-19T23:26:16.221Z,99916.63
2023-01-19T23:28:43.989Z,99922.72
2023-01-19T23:31:22.807Z,99914.84
2023-01-19T23:33:51.465Z,99919.09
2023-01-19T23:36:18.955Z,99921.63
2023-01-19T23:38:54.016Z,99926.75
2023-01-19T23:41:21.648Z,99923.19
2023-01-19T23:43:48.586Z,99926.44
2023-01-19T23:46:16.501Z,99935.94
2023-01-19T23:48:43.600Z,99924.66
2023-01-19T23:51:15.826Z,99933.28
2023-01-19T23:53:42.484Z,99933.28
2023-01-19T23:56:10.154Z,99934.91
2023-01-19T23:58:36.794Z,99932.25
